Edwards, MS (39066)

8:37 PM CDT on July 23, 2014 (GMT -0500)
John Bell Williams, Raymond (KJVW) Elev 246 ft | 32.30 °N, 90.41 °W | Change Station

Current weather conditions updated 22 minutes ago

Partly Cloudy
Partly Cloudy
77 °F
Feels Like 77 °F
N
5
Wind Variable Wind from North

Tomorrow is forecast to be nearly the same temperature as today. Showers and thunderstorms late.

Today
High -- | Low -- °F
--% Chance of Precip.
Yesterday
High -- | Low -- °F
Precip. -- in
6:11 AM 8:06 PM
Waning Crescent, 8% visible
Pressure 30.02 in
Visibility 10.0 miles
Clouds Clear
Dew Point 72 °F
Humidity 83%
Rainfall 0.00 in
Snow Depth Not available.
UV 0 out of 12
Pollen 3.20 out of 12
Air Quality Not available.
Flu Activity Not available.
METAR KJVW 240115Z AUTO 35004KT 10SM VCTS CLR 25/22 A3002 RMK AO2 LTG DSNT NW-E

More Conditions Fewer Conditions

Pressure 30.02 in
Visibility 10.0 miles
Clouds Clear
Dew Point 72 °F
Humidity 83%
Rainfall 0.00 in
Snow Depth Not available.
UV 0 out of 12
Pollen 3.20 out of 12
Air Quality Not available.
Flu Activity Not available.
METAR KJVW 240115Z AUTO 35004KT 10SM VCTS CLR 25/22 A3002 RMK AO2 LTG DSNT NW-E

More Conditions Fewer Conditions

10-Day Weather Forecast

Almanac

Astronomy

Jul. 23, 2014 Rise Set
Actual Time 6:11 AM CDT 8:06 PM CDT
Civil Twilight 5:43 AM CDT 8:33 PM CDT
Nautical Twilight 5:10 AM CDT 9:06 PM CDT
Astronomical Twilight 4:35 AM CDT 9:41 PM CDT
Moon 3:29 AM CDT (7/23) 5:36 PM CDT (7/23)
Length of Visible Light 14h 49m
Length of Day
13h 54m
Tomorrow will be 1m 16s shorter.
Waning Crescent, 8% of the Moon is Illuminated
Today
Waning Crescent
Jul 26
New
Aug 3
First Quarter
Aug 10
Full
Aug 17
Last Quarter

Today's Extremes

State Highs State Lows

Community

WunderPhotos

Upload Photos

1,736,843 photos uploaded!

Nearby

Snow Depth

Station Depth Elevation
No new snow has been reported.

Earthquake Activity

City Distance Mag. Time & Date
No recent earthquake activity has been reported nearby.
Minimum magnitude displayed is 2.5.

Coastal Water Temperatures

Place Temperature
No Stations Reporting

Nearby Weather Stations

Station Location Temp. Heat Index Dew Point Humidity Wind Precip. Elev Updated Type
Lake Park, Vicksburg, MS 81.3 °F 87 °F 75 °F 81% North  at  1.6 mph 0.00 in / hr 249 ft 8:35 PM CDT Normal
Tank, Crystal Springs, MS 77.7 °F 80 °F 76 °F 94% WNW  at  0.0 mph - / hr 338 ft 8:25 PM CDT Normal
DANA RD 1, Vicksburg, MS 79.9 °F 85 °F 77 °F 90% South  at  0.0 mph - / hr 243 ft 8:25 PM CDT Normal
Brinkly, Jackson, MS 74.5 °F 71 °F 74 °F 98% WNW  at  0.0 mph - / hr 344 ft 8:23 PM CDT Normal

Show More Stations Show Fewer Stations